Weather at Parco Livenza Airfield

Public forecast

Using degrees Celsius for public forecast. Weather courtesy of forecast.io.

Closest aviation weather report (METAR) to Parco Livenza Airfield

Closest report is Aviano Air Base, 18.1 nm (33.5 km) NNW.

2024/07/20 05:55 (retrieved 42 minutes ago)

LIPA 200555Z 03005KT 9999 SCT100 24/23 Q1011 RMK BKN SCT150 VIS MIN 9999 WIND THR05 /////KT WIND THR23 /////KT A2986 BLU

Closest aviation forecast (TAF) to Parco Livenza Airfield

Closest forecast is Venice Marco Polo Airport, 20.5 nm (37.9 km) SW.

2024/07/20 06:00 (retrieved 37 minutes ago)

TAF LIPZ 200500Z 2006/2112 30010KT 9999 BKN070 TEMPO 2006/2010 RA BECMG 2012/2014 11010KT BECMG 2018/2020 VRB05KT